Time;durP1;ratioP1;P1;durP2;ratioP2;P2;SDS_P1;SDS_P2;PMS_P1;PMS_P2;Temp;Humidity;BMP_temperature;BMP_pressure;BME280_temperature;BME280_humidity;BME280_pressure;Samples;Min_cycle;Max_cycle;Signal;HPM_P1;HPM_P2
2021/06/27 00:01:43;;;;;;;100.53;47.35;;;;;;;14.38;100.00;101661.25;5232938;28;20089;-85
2021/06/27 00:04:14;;;;;;;108.50;49.08;;;;;;;14.33;100.00;101660.09;5239246;28;20033;-85
2021/06/27 00:06:46;;;;;;;114.85;50.78;;;;;;;14.34;100.00;101653.69;5226116;28;20024;-85
2021/06/27 00:09:17;;;;;;;105.30;48.53;;;;;;;14.28;100.00;101654.38;5233948;28;20032;-85
2021/06/27 00:11:47;;;;;;;108.22;50.08;;;;;;;14.22;100.00;101656.72;5232397;28;20032;-85
2021/06/27 00:14:17;;;;;;;104.60;47.80;;;;;;;14.18;100.00;101654.53;5245478;28;20115;-85
2021/06/27 00:16:52;;;;;;;85.07;45.08;;;;;;;14.15;100.00;101653.00;5232047;28;20103;-85
2021/06/27 00:19:22;;;;;;;85.55;41.92;;;;;;;14.09;100.00;101651.00;5234316;28;20063;-85
2021/06/27 00:21:53;;;;;;;91.97;44.45;;;;;;;14.07;100.00;101655.72;5230537;28;20099;-85
2021/06/27 00:24:24;;;;;;;92.72;44.45;;;;;;;14.04;100.00;101647.97;5245982;28;20461;-85
2021/06/27 00:26:54;;;;;;;88.50;44.55;;;;;;;14.02;100.00;101643.78;5239274;28;20563;-85
2021/06/27 00:29:25;;;;;;;79.25;40.67;;;;;;;13.98;100.00;101644.09;5245185;28;20048;-85
2021/06/27 00:31:55;;;;;;;84.82;42.25;;;;;;;13.94;100.00;101634.66;5245513;28;20398;-85
2021/06/27 00:34:26;;;;;;;92.97;42.85;;;;;;;13.91;100.00;101628.78;5245638;28;20463;-85
2021/06/27 00:36:56;;;;;;;96.05;44.05;;;;;;;13.92;100.00;101631.28;5227478;28;20021;-85
2021/06/27 00:39:27;;;;;;;102.55;46.03;;;;;;;13.93;100.00;101632.13;5242549;28;20028;-85
2021/06/27 00:41:57;;;;;;;76.53;38.45;;;;;;;13.91;100.00;101631.47;5224658;28;20023;-85
2021/06/27 00:44:28;;;;;;;81.28;39.95;;;;;;;13.86;100.00;101631.97;5242057;28;20028;-85
2021/06/27 00:46:58;;;;;;;73.70;36.63;;;;;;;13.83;100.00;101634.16;5245424;28;20114;-85
2021/06/27 00:49:29;;;;;;;95.05;45.15;;;;;;;13.78;100.00;101617.63;5244734;28;20491;-85
2021/06/27 00:51:59;;;;;;;95.57;46.25;;;;;;;13.83;100.00;101626.06;5242135;28;20024;-85
2021/06/27 00:54:29;;;;;;;102.03;46.13;;;;;;;13.77;100.00;101629.44;5245312;28;20058;-85
2021/06/27 00:57:01;;;;;;;114.55;52.22;;;;;;;13.76;100.00;101619.66;5244687;28;20364;-85
2021/06/27 00:59:31;;;;;;;99.97;45.95;;;;;;;13.71;100.00;101629.09;5232276;28;20037;-85
2021/06/27 01:02:03;;;;;;;87.60;41.67;;;;;;;13.70;100.00;101621.16;5229088;28;20450;-85
2021/06/27 01:04:35;;;;;;;94.55;44.05;;;;;;;13.67;100.00;101622.34;5225524;28;20024;-83
2021/06/27 01:07:07;;;;;;;99.07;44.67;;;;;;;13.65;100.00;101624.34;5209812;28;20109;-83
2021/06/27 01:09:38;;;;;;;90.05;41.70;;;;;;;13.61;100.00;101617.63;5237928;28;20027;-83
2021/06/27 01:12:09;;;;;;;85.72;41.03;;;;;;;13.64;100.00;101622.69;5241657;28;20021;-84
2021/06/27 01:14:39;;;;;;;90.20;41.55;;;;;;;13.71;100.00;101623.72;5226318;28;20091;-84
2021/06/27 01:17:10;;;;;;;87.90;41.90;;;;;;;13.69;100.00;101616.78;5246642;28;20024;-84
2021/06/27 01:19:41;;;;;;;76.60;38.95;;;;;;;13.66;100.00;101619.84;5233373;28;20068;-83
2021/06/27 01:22:12;;;;;;;112.93;45.65;;;;;;;13.65;100.00;101623.50;5230578;28;20116;-83
2021/06/27 01:24:43;;;;;;;126.70;52.90;;;;;;;13.72;100.00;101622.69;5231980;28;20346;-83
2021/06/27 01:27:13;;;;;;;98.72;46.35;;;;;;;13.78;100.00;101620.34;5236287;28;20049;-83
2021/06/27 01:29:43;;;;;;;103.95;50.33;;;;;;;13.74;100.00;101620.66;5246323;28;20020;-83
2021/06/27 01:32:14;;;;;;;115.80;50.95;;;;;;;13.73;100.00;101623.53;5251266;28;20024;-83
2021/06/27 01:34:44;;;;;;;120.00;52.28;;;;;;;13.80;100.00;101610.22;5250898;28;20431;-83
2021/06/27 01:37:15;;;;;;;124.25;53.50;;;;;;;13.88;100.00;101610.22;5238447;28;20047;-83
2021/06/27 01:39:46;;;;;;;131.95;55.90;;;;;;;13.92;100.00;101611.56;5242586;28;20033;-84
2021/06/27 01:42:16;;;;;;;134.65;58.33;;;;;;;13.97;100.00;101611.91;5229907;28;20056;-84
2021/06/27 01:44:47;;;;;;;131.00;56.78;;;;;;;13.97;100.00;101609.22;5237196;28;20119;-84
2021/06/27 01:47:26;;;;;;;136.07;58.28;;;;;;;13.98;100.00;101617.13;5235785;28;20035;-84
2021/06/27 01:49:57;;;;;;;132.20;56.03;;;;;;;13.99;100.00;101607.16;5239334;28;20030;-84
2021/06/27 01:52:29;;;;;;;130.45;55.08;;;;;;;14.02;100.00;101612.22;5232916;28;20048;-84
2021/06/27 01:55:00;;;;;;;148.48;62.92;;;;;;;14.06;100.00;101608.19;5241046;28;20051;-84
2021/06/27 01:57:31;;;;;;;160.10;65.03;;;;;;;14.33;100.00;101603.41;5245183;28;20016;-84
2021/06/27 02:00:04;;;;;;;169.32;67.95;;;;;;;14.46;100.00;101603.72;5228876;28;20104;-84
2021/06/27 02:02:36;;;;;;;146.38;63.67;;;;;;;14.52;100.00;101605.75;5234963;28;20025;-83
2021/06/27 02:05:07;;;;;;;172.52;69.20;;;;;;;14.58;100.00;101612.31;5230812;28;20025;-83
2021/06/27 02:07:39;;;;;;;145.00;62.58;;;;;;;14.58;100.00;101607.75;5239226;28;20036;-83
2021/06/27 02:10:13;;;;;;;133.55;59.65;;;;;;;14.56;100.00;101606.22;5238849;28;20021;-83
2021/06/27 02:12:43;;;;;;;139.02;61.72;;;;;;;14.55;100.00;101612.66;5239642;28;20475;-83
2021/06/27 02:15:15;;;;;;;139.40;58.70;;;;;;;14.53;100.00;101612.84;5230347;28;20025;-83
2021/06/27 02:18:00;;;;;;;131.57;59.30;;;;;;;14.52;100.00;101605.75;5232726;28;20501;-83
2021/06/27 02:20:30;;;;;;;131.27;58.33;;;;;;;14.51;100.00;101606.78;5226630;28;20400;-83
2021/06/27 02:23:01;;;;;;;132.68;59.97;;;;;;;14.50;100.00;101615.88;5228038;28;20025;-83
2021/06/27 02:25:32;;;;;;;149.40;59.10;;;;;;;14.50;100.00;101611.31;5238659;28;20028;-83
2021/06/27 02:28:03;;;;;;;138.25;59.70;;;;;;;14.54;100.00;101611.81;5239971;28;20033;-83
2021/06/27 02:30:33;;;;;;;127.53;53.90;;;;;;;14.55;100.00;101612.66;5234347;28;20016;-83
2021/06/27 02:33:05;;;;;;;120.15;55.78;;;;;;;14.54;100.00;101609.09;5229643;28;20067;-83
2021/06/27 02:35:35;;;;;;;114.15;52.28;;;;;;;14.55;100.00;101601.84;5228140;28;20027;-83
2021/06/27 02:38:07;;;;;;;110.65;50.50;;;;;;;14.53;100.00;101599.34;5241967;28;20464;-83
2021/06/27 02:40:38;;;;;;;101.25;46.92;;;;;;;14.49;100.00;101600.69;5229949;28;20449;-83
2021/06/27 02:43:09;;;;;;;113.25;50.28;;;;;;;14.46;100.00;101604.56;5231944;28;20025;-83
2021/06/27 02:45:40;;;;;;;116.50;52.00;;;;;;;14.47;100.00;101600.88;5233522;28;20145;-83
2021/06/27 02:48:11;;;;;;;151.98;58.92;;;;;;;14.46;100.00;101599.16;5226531;28;20036;-83
2021/06/27 02:50:42;;;;;;;146.05;61.65;;;;;;;14.48;100.00;101597.16;5239708;28;20020;-83
2021/06/27 02:53:13;;;;;;;151.05;61.75;;;;;;;14.50;100.00;101592.41;5244348;28;20028;-83
2021/06/27 02:55:44;;;;;;;137.65;56.60;;;;;;;14.55;100.00;101593.75;5241534;28;20025;-83
2021/06/27 02:58:14;;;;;;;122.13;54.50;;;;;;;14.58;100.00;101590.72;5236968;28;20206;-83
2021/06/27 03:00:45;;;;;;;137.48;57.70;;;;;;;14.61;100.00;101591.22;5241082;28;20023;-83
2021/06/27 03:03:15;;;;;;;150.90;63.13;;;;;;;14.66;100.00;101588.84;5244862;28;20048;-83
2021/06/27 03:05:46;;;;;;;154.25;63.28;;;;;;;14.66;100.00;101586.13;5236203;28;20457;-84
2021/06/27 03:08:16;;;;;;;133.68;56.85;;;;;;;14.67;100.00;101581.56;5248955;28;20028;-84
2021/06/27 03:10:47;;;;;;;130.93;55.75;;;;;;;14.65;100.00;101570.09;5243768;28;20028;-83
2021/06/27 03:13:17;;;;;;;139.43;58.05;;;;;;;14.65;100.00;101561.97;5255299;28;20033;-83
2021/06/27 03:15:48;;;;;;;132.68;59.60;;;;;;;14.70;100.00;101557.72;5242247;28;20031;-83
2021/06/27 03:18:19;;;;;;;129.55;56.85;;;;;;;14.71;100.00;101559.44;5250042;28;20036;-83
2021/06/27 03:20:49;;;;;;;130.10;57.28;;;;;;;14.73;100.00;101562.78;5236464;28;20020;-83
2021/06/27 03:23:20;;;;;;;130.45;58.42;;;;;;;14.73;100.00;101561.94;5254003;28;20049;-83
2021/06/27 03:25:51;;;;;;;135.50;58.45;;;;;;;14.76;100.00;101564.31;5255113;28;20042;-83
2021/06/27 03:28:22;;;;;;;138.20;62.58;;;;;;;14.81;100.00;101566.47;5246374;28;20028;-83
2021/06/27 03:30:52;;;;;;;133.98;61.13;;;;;;;14.84;100.00;101558.84;5233274;28;20571;-83
2021/06/27 03:33:23;;;;;;;137.65;62.35;;;;;;;14.88;100.00;101570.16;5231382;28;20055;-83
2021/06/27 03:35:54;;;;;;;129.98;61.08;;;;;;;14.90;100.00;101568.94;5231808;28;20531;-83
2021/06/27 03:38:40;;;;;;;131.45;60.55;;;;;;;14.91;100.00;101557.16;5239344;28;20430;-83
2021/06/27 03:41:11;;;;;;;122.60;58.72;;;;;;;14.92;100.00;101557.97;5241244;28;20033;-83
2021/06/27 03:43:41;;;;;;;127.18;59.55;;;;;;;14.95;100.00;101563.00;5234827;28;20016;-83
2021/06/27 03:46:14;;;;;;;124.82;56.45;;;;;;;14.97;100.00;101553.72;5231839;28;20116;-84
2021/06/27 03:48:46;;;;;;;121.13;58.83;;;;;;;15.03;100.00;101560.28;5245094;28;20097;-84
2021/06/27 03:51:16;;;;;;;126.47;58.72;;;;;;;15.07;100.00;101560.78;5245253;28;20107;-84
2021/06/27 03:53:47;;;;;;;126.40;58.58;;;;;;;15.15;100.00;101572.34;5246035;28;20028;-84
2021/06/27 03:56:18;;;;;;;119.15;57.80;;;;;;;15.31;100.00;101568.69;5245081;28;20082;-83
2021/06/27 03:58:49;;;;;;;121.68;57.97;;;;;;;15.42;100.00;101565.59;5229877;28;20112;-84
2021/06/27 04:01:20;;;;;;;116.63;56.97;;;;;;;15.50;100.00;101557.41;5233678;28;20391;-84
2021/06/27 04:03:50;;;;;;;102.47;53.83;;;;;;;15.61;100.00;101556.13;5228834;28;20024;-84
2021/06/27 04:06:21;;;;;;;96.13;51.20;;;;;;;15.69;100.00;101555.25;5224568;28;20063;-84
2021/06/27 04:08:52;;;;;;;92.55;50.05;;;;;;;15.70;100.00;101554.22;5237000;28;20121;-84
2021/06/27 04:11:22;;;;;;;92.80;49.42;;;;;;;15.77;100.00;101550.63;5235717;28;20059;-84
2021/06/27 04:13:53;;;;;;;90.35;50.28;;;;;;;15.73;100.00;101535.78;5231508;28;20024;-84
2021/06/27 04:16:23;;;;;;;89.30;47.13;;;;;;;15.69;100.00;101534.44;5237250;28;20020;-84
2021/06/27 04:18:54;;;;;;;89.50;47.75;;;;;;;15.65;100.00;101526.88;5237416;28;20107;-83
2021/06/27 04:21:25;;;;;;;85.25;47.53;;;;;;;15.61;100.00;101523.66;5223662;28;20554;-83
2021/06/27 04:23:56;;;;;;;82.13;47.08;;;;;;;15.50;100.00;101514.13;5224774;28;20078;-84
2021/06/27 04:26:26;;;;;;;82.10;47.13;;;;;;;15.48;100.00;101512.66;5237242;28;20028;-83
2021/06/27 04:28:57;;;;;;;79.32;44.30;;;;;;;15.43;100.00;101513.19;5233621;28;20116;-83
2021/06/27 04:31:27;;;;;;;83.45;47.33;;;;;;;15.43;100.00;101521.31;5244170;28;20593;-83
2021/06/27 04:33:58;;;;;;;76.18;43.78;;;;;;;15.48;100.00;101516.19;5227021;28;20450;-83
2021/06/27 04:36:28;;;;;;;81.45;45.20;;;;;;;15.46;100.00;101509.25;5226021;28;20025;-83
2021/06/27 04:38:59;;;;;;;87.38;46.40;;;;;;;15.55;100.00;101508.19;5236955;28;20028;-83
2021/06/27 04:41:30;;;;;;;91.00;49.72;;;;;;;15.62;100.00;101511.00;5236266;28;20028;-84
2021/06/27 04:44:01;;;;;;;91.45;48.10;;;;;;;15.73;100.00;101511.44;5236962;28;20476;-84
2021/06/27 04:46:32;;;;;;;82.20;47.33;;;;;;;15.91;100.00;101512.94;5242308;28;20025;-84
2021/06/27 04:49:05;;;;;;;86.57;47.17;;;;;;;16.17;100.00;101516.03;5244481;28;20099;-84
2021/06/27 04:51:35;;;;;;;84.30;46.60;;;;;;;16.45;100.00;101515.38;5244218;28;20039;-84
2021/06/27 04:54:06;;;;;;;83.03;46.42;;;;;;;16.79;100.00;101502.06;5230105;28;20434;-84
2021/06/27 04:56:36;;;;;;;67.13;41.08;;;;;;;17.01;100.00;101499.38;5233337;28;20032;-84
2021/06/27 04:59:09;;;;;;;68.50;40.88;;;;;;;17.08;100.00;101505.72;5236191;28;20017;-84
2021/06/27 05:01:39;;;;;;;73.07;41.95;;;;;;;17.26;100.00;101506.09;5235994;28;20017;-84
2021/06/27 05:04:10;;;;;;;64.20;39.67;;;;;;;17.42;100.00;101493.28;5244289;28;20095;-84
2021/06/27 05:06:40;;;;;;;66.82;38.50;;;;;;;17.64;100.00;101510.38;5243506;28;20553;-84
2021/06/27 05:09:11;;;;;;;59.50;38.47;;;;;;;17.85;100.00;101511.19;5240925;28;20082;-84
2021/06/27 05:11:41;;;;;;;61.33;36.78;;;;;;;18.20;100.00;101503.06;5245740;28;20045;-84
2021/06/27 05:14:12;;;;;;;52.15;33.42;;;;;;;18.46;100.00;101509.66;5250956;28;20083;-84
2021/06/27 05:16:43;;;;;;;52.80;33.67;;;;;;;18.74;100.00;101515.06;5247285;28;20092;-84
2021/06/27 05:19:13;;;;;;;58.42;34.78;;;;;;;18.96;100.00;101515.72;5251646;28;20021;-84
2021/06/27 05:21:44;;;;;;;54.38;33.85;;;;;;;19.05;100.00;101520.78;5240814;28;20029;-84
2021/06/27 05:24:14;;;;;;;52.30;33.97;;;;;;;19.64;100.00;101513.75;5252406;28;20027;-84
2021/06/27 05:26:48;;;;;;;52.20;33.50;;;;;;;20.50;100.00;101529.13;5247133;28;20024;-84
2021/06/27 05:29:18;;;;;;;47.10;30.67;;;;;;;21.04;100.00;101528.66;5261717;28;20055;-84
2021/06/27 05:31:49;;;;;;;48.70;30.17;;;;;;;21.11;100.00;101521.25;5253710;28;20025;-84
2021/06/27 05:34:19;;;;;;;48.88;31.73;;;;;;;20.87;100.00;101516.56;5246380;28;20027;-84
2021/06/27 05:36:50;;;;;;;44.20;29.42;;;;;;;21.46;100.00;101516.19;5256528;28;20063;-83
2021/06/27 05:39:21;;;;;;;47.70;30.05;;;;;;;21.54;100.00;101522.47;5249989;28;20017;-83
2021/06/27 05:41:52;;;;;;;43.60;28.17;;;;;;;21.46;100.00;101513.47;5242098;28;20051;-83
2021/06/27 05:44:22;;;;;;;40.80;27.20;;;;;;;21.90;100.00;101510.78;5236679;28;20403;-84
2021/06/27 05:46:53;;;;;;;38.15;25.95;;;;;;;22.45;100.00;101508.13;5243186;28;20035;-84
2021/06/27 05:49:23;;;;;;;36.80;27.15;;;;;;;22.56;100.00;101504.59;5248345;28;20025;-84
2021/06/27 05:51:53;;;;;;;44.42;28.27;;;;;;;23.33;100.00;101496.56;5240897;28;20540;-84
2021/06/27 05:54:24;;;;;;;38.80;26.70;;;;;;;23.45;100.00;101502.91;5231379;28;20028;-84
2021/06/27 05:56:55;;;;;;;42.10;29.00;;;;;;;23.33;100.00;101502.03;5245295;28;20020;-84
2021/06/27 05:59:25;;;;;;;37.97;26.08;;;;;;;24.17;100.00;101501.88;5224057;28;20438;-84
2021/06/27 06:01:55;;;;;;;39.10;25.63;;;;;;;24.82;100.00;101496.09;5238573;28;20050;-84
2021/06/27 06:04:26;;;;;;;33.03;24.60;;;;;;;25.05;100.00;101492.38;5244560;28;20443;-83
2021/06/27 06:06:56;;;;;;;40.15;26.15;;;;;;;24.87;100.00;101487.97;5245451;28;20025;-84
2021/06/27 06:09:27;;;;;;;37.67;25.83;;;;;;;24.13;100.00;101481.47;5228019;28;20057;-84
2021/06/27 06:11:57;;;;;;;39.65;28.30;;;;;;;23.66;100.00;101487.00;5240467;28;20107;-84
2021/06/27 06:14:28;;;;;;;39.85;27.27;;;;;;;23.43;100.00;101485.88;5247482;28;20060;-84
2021/06/27 06:16:59;;;;;;;44.45;29.08;;;;;;;23.19;100.00;101482.28;5235307;28;20071;-83
2021/06/27 06:19:29;;;;;;;41.95;26.85;;;;;;;23.43;100.00;101488.59;5238329;28;20364;-84
2021/06/27 06:22:00;;;;;;;43.58;27.48;;;;;;;23.24;100.00;101490.63;5246666;28;20028;-83
2021/06/27 06:24:30;;;;;;;42.33;26.92;;;;;;;23.01;100.00;101485.06;5232720;28;20025;-83
2021/06/27 06:27:01;;;;;;;36.60;24.38;;;;;;;23.14;100.00;101487.59;5240341;28;20021;-83
2021/06/27 06:29:31;;;;;;;35.20;23.08;;;;;;;23.16;100.00;101488.22;5225784;28;20247;-84
2021/06/27 06:32:02;;;;;;;36.78;25.30;;;;;;;22.94;100.00;101484.31;5225838;28;20029;-83
2021/06/27 06:34:33;;;;;;;36.58;24.08;;;;;;;22.90;100.00;101492.19;5227170;28;20049;-83
2021/06/27 06:37:03;;;;;;;35.22;24.80;;;;;;;22.65;100.00;101489.56;5237752;28;20041;-83
2021/06/27 06:39:34;;;;;;;36.63;24.38;;;;;;;22.28;100.00;101494.22;5234149;28;20120;-83
2021/06/27 06:42:05;;;;;;;35.83;24.55;;;;;;;22.01;100.00;101490.91;5246732;28;20027;-83
2021/06/27 06:44:35;;;;;;;40.08;26.27;;;;;;;22.01;100.00;101487.34;5239779;28;20111;-83
2021/06/27 06:47:05;;;;;;;40.92;26.30;;;;;;;21.92;100.00;101495.81;5240044;28;20100;-84
2021/06/27 06:49:36;;;;;;;39.53;26.65;;;;;;;21.76;100.00;101490.97;5240145;28;20112;-84
2021/06/27 06:52:07;;;;;;;38.17;24.80;;;;;;;21.66;100.00;101499.66;5242373;28;20625;-84
2021/06/27 06:54:37;;;;;;;34.05;24.15;;;;;;;21.64;100.00;101496.31;5243606;28;20037;-83
2021/06/27 06:57:08;;;;;;;40.00;26.50;;;;;;;21.67;100.00;101503.22;5244513;28;20025;-83
2021/06/27 06:59:39;;;;;;;41.45;26.65;;;;;;;21.51;100.00;101504.63;5229712;28;20021;-84
2021/06/27 07:02:09;;;;;;;38.13;23.77;;;;;;;21.68;100.00;101502.97;5243741;28;20500;-84
2021/06/27 07:04:40;;;;;;;38.83;23.70;;;;;;;21.85;100.00;101507.91;5239822;28;20025;-84
2021/06/27 07:07:10;;;;;;;34.42;22.13;;;;;;;21.86;100.00;101501.38;5245462;28;20028;-84
2021/06/27 07:09:41;;;;;;;31.58;22.60;;;;;;;21.91;100.00;101501.53;5228598;28;20029;-83
2021/06/27 07:12:11;;;;;;;32.42;22.63;;;;;;;22.02;100.00;101499.94;5234311;28;20086;-84
2021/06/27 07:14:43;;;;;;;32.67;22.50;;;;;;;22.10;100.00;101503.22;5236657;28;20021;-83
2021/06/27 07:17:14;;;;;;;35.20;23.13;;;;;;;22.22;100.00;101501.41;5240156;28;20074;-84
2021/06/27 07:19:44;;;;;;;34.40;21.95;;;;;;;22.21;100.00;101504.41;5246356;28;20044;-84
2021/06/27 07:22:15;;;;;;;32.85;22.73;;;;;;;22.34;100.00;101500.66;5227719;28;20620;-84
2021/06/27 07:24:45;;;;;;;31.90;23.63;;;;;;;22.45;100.00;101499.91;5240364;28;20487;-84
2021/06/27 07:27:16;;;;;;;36.38;22.88;;;;;;;22.50;100.00;101508.25;5246848;28;20032;-83
2021/06/27 07:29:46;;;;;;;32.88;22.70;;;;;;;22.69;100.00;101506.31;5245961;28;20032;-84
2021/06/27 07:32:16;;;;;;;33.22;23.33;;;;;;;22.78;100.00;101512.31;5235109;28;20142;-84
2021/06/27 07:34:47;;;;;;;33.70;23.13;;;;;;;22.88;100.00;101516.19;5226144;28;20025;-84
2021/06/27 07:37:17;;;;;;;36.95;23.88;;;;;;;22.84;100.00;101508.63;5230229;28;20028;-84
2021/06/27 07:39:48;;;;;;;31.50;21.42;;;;;;;22.80;100.00;101502.81;5246270;28;20025;-83
2021/06/27 07:42:18;;;;;;;39.30;24.33;;;;;;;22.77;100.00;101508.75;5246388;28;20111;-84
2021/06/27 07:44:49;;;;;;;33.85;22.27;;;;;;;22.83;100.00;101504.25;5246621;28;20119;-83
2021/06/27 07:47:19;;;;;;;36.60;22.42;;;;;;;22.96;100.00;101507.66;5246417;28;20107;-84
2021/06/27 07:49:50;;;;;;;34.00;22.45;;;;;;;22.98;100.00;101511.00;5245922;28;20024;-85
2021/06/27 07:52:20;;;;;;;31.65;21.95;;;;;;;23.06;100.00;101509.84;5246414;28;20111;-84
2021/06/27 07:54:50;;;;;;;34.05;21.98;;;;;;;23.10;100.00;101512.94;5223452;28;20112;-84
2021/06/27 07:57:21;;;;;;;28.92;19.23;;;;;;;23.14;100.00;101512.22;5225578;28;20017;-86
2021/06/27 07:59:51;;;;;;;34.08;22.20;;;;;;;23.10;100.00;101511.03;5224950;28;20032;-85
2021/06/27 08:02:22;;;;;;;34.35;22.17;;;;;;;23.08;100.00;101504.94;5226394;28;20155;-84
2021/06/27 08:04:52;;;;;;;33.30;20.58;;;;;;;23.31;100.00;101509.66;5225554;28;20029;-85
2021/06/27 08:07:23;;;;;;;30.67;20.05;;;;;;;23.37;100.00;101510.63;5231012;28;20553;-85
2021/06/27 08:09:53;;;;;;;29.50;20.58;;;;;;;23.45;100.00;101511.13;5246064;28;20507;-85
2021/06/27 08:12:23;;;;;;;33.55;20.98;;;;;;;23.48;100.00;101507.06;5253716;28;20025;-84
2021/06/27 08:14:54;;;;;;;30.77;20.88;;;;;;;23.33;100.00;101507.50;5232258;28;20036;-85
2021/06/27 08:17:24;;;;;;;30.13;20.15;;;;;;;23.43;100.00;101502.28;5232208;28;20455;-85
2021/06/27 08:19:55;;;;;;;30.15;20.02;;;;;;;23.37;100.00;101496.94;5227783;28;20029;-85
2021/06/27 08:22:25;;;;;;;29.60;18.80;;;;;;;23.37;100.00;101497.78;5258431;28;20033;-85
2021/06/27 08:24:56;;;;;;;29.33;20.00;;;;;;;23.32;100.00;101489.44;5244790;28;20035;-84
2021/06/27 08:27:26;;;;;;;28.15;18.02;;;;;;;23.47;100.00;101495.28;5245787;28;20076;-85
2021/06/27 08:29:57;;;;;;;25.48;17.85;;;;;;;23.52;100.00;101484.47;5263201;28;20012;-85
2021/06/27 08:32:29;;;;;;;28.67;19.73;;;;;;;23.58;100.00;101490.06;5235982;28;20361;-84
2021/06/27 08:34:59;;;;;;;27.33;18.80;;;;;;;23.66;100.00;101485.09;5242133;28;20024;-84
2021/06/27 08:37:30;;;;;;;34.60;18.40;;;;;;;23.70;100.00;101480.81;5238191;28;20028;-84
2021/06/27 08:40:01;;;;;;;25.30;17.67;;;;;;;23.77;100.00;101478.78;5236574;28;20021;-84
2021/06/27 08:42:32;;;;;;;26.08;17.80;;;;;;;23.84;100.00;101475.06;5223142;28;20025;-84
2021/06/27 08:45:04;;;;;;;28.85;18.20;;;;;;;23.88;100.00;101463.41;5230986;28;20028;-84
2021/06/27 08:47:36;;;;;;;29.52;18.73;;;;;;;23.91;100.00;101467.59;5230833;28;20096;-84
2021/06/27 08:50:09;;;;;;;22.10;15.77;;;;;;;24.24;100.00;101458.69;5224398;28;20025;-84
2021/06/27 08:52:47;;;;;;;23.00;15.85;;;;;;;24.37;100.00;101458.47;5224962;28;20024;-84
2021/06/27 08:55:17;;;;;;;23.30;16.55;;;;;;;24.60;100.00;101457.56;5236471;28;20028;-84
2021/06/27 08:57:48;;;;;;;21.20;15.27;;;;;;;24.63;100.00;101451.56;5232456;28;20021;-84
2021/06/27 09:00:19;;;;;;;25.35;15.15;;;;;;;24.63;100.00;101451.56;5244125;28;20023;-84
2021/06/27 09:02:49;;;;;;;24.63;16.02;;;;;;;24.79;100.00;101452.69;5224782;28;20028;-84
2021/06/27 09:05:21;;;;;;;21.73;16.38;;;;;;;24.96;100.00;101439.84;5237742;28;20037;-84
2021/06/27 09:07:52;;;;;;;21.75;15.63;;;;;;;25.12;100.00;101442.88;5224303;28;20054;-84
2021/06/27 09:10:24;;;;;;;21.55;14.90;;;;;;;25.41;100.00;101430.72;5240578;28;20484;-84
2021/06/27 09:12:58;;;;;;;27.30;15.35;;;;;;;25.52;100.00;101432.53;5233507;28;20114;-84
2021/06/27 09:15:34;;;;;;;22.52;15.85;;;;;;;25.47;100.00;101432.47;5231104;28;20024;-84
2021/06/27 09:18:14;;;;;;;22.75;15.05;;;;;;;25.43;100.00;101431.28;5230722;28;20033;-86
2021/06/27 09:20:49;;;;;;;21.23;15.15;;;;;;;25.55;100.00;101422.94;5231755;28;20031;-85
2021/06/27 09:23:39;;;;;;;26.73;15.07;;;;;;;25.53;100.00;101417.72;5230322;28;20495;-84
2021/06/27 09:26:10;;;;;;;21.52;13.45;;;;;;;25.43;100.00;101417.56;5229173;28;20423;-85
2021/06/27 09:28:46;;;;;;;22.52;15.30;;;;;;;25.52;100.00;101412.47;5222745;28;20025;-85
2021/06/27 09:31:40;;;;;;;24.48;15.50;;;;;;;25.36;100.00;101405.94;5222215;28;20021;-85
2021/06/27 09:34:16;;;;;;;20.58;14.93;;;;;;;25.66;100.00;101402.81;5235906;28;20021;-85
2021/06/27 09:36:50;;;;;;;20.13;14.57;;;;;;;25.72;100.00;101400.94;5243198;28;20373;-87
2021/06/27 09:39:21;;;;;;;20.15;14.10;;;;;;;25.81;100.00;101397.53;5236104;28;20024;-85
2021/06/27 09:41:56;;;;;;;19.98;13.70;;;;;;;25.93;100.00;101394.66;5235243;28;20357;-85
2021/06/27 09:44:26;;;;;;;25.05;14.65;;;;;;;25.81;100.00;101399.47;5233929;28;20020;-85
2021/06/27 09:46:57;;;;;;;20.48;14.05;;;;;;;25.87;100.00;101389.38;5247245;28;20082;-85
2021/06/27 09:49:31;;;;;;;18.48;12.70;;;;;;;26.14;100.00;101392.16;5233500;28;20541;-85
2021/06/27 09:52:07;;;;;;;21.02;14.07;;;;;;;26.17;100.00;101391.66;5236021;28;20242;-83
2021/06/27 09:54:39;;;;;;;19.27;12.82;;;;;;;26.40;100.00;101398.78;5234508;28;20029;-85
2021/06/27 09:57:20;;;;;;;17.08;12.75;;;;;;;26.79;100.00;101394.81;5233445;28;20017;-85
2021/06/27 09:59:51;;;;;;;23.13;12.45;;;;;;;26.85;96.08;101395.69;5235625;28;20028;-85
2021/06/27 10:02:21;;;;;;;17.85;12.40;;;;;;;26.68;98.41;101384.81;5244929;28;20467;-85
2021/06/27 10:04:52;;;;;;;27.92;13.85;;;;;;;26.71;89.97;101383.44;5247271;28;20060;-85
2021/06/27 10:07:37;;;;;;;20.48;12.13;;;;;;;26.77;91.60;101382.41;5246564;28;20021;-84
2021/06/27 10:10:19;;;;;;;19.15;12.05;;;;;;;26.72;94.31;101380.44;5230946;28;20041;-85
2021/06/27 10:12:50;;;;;;;13.38;10.48;;;;;;;26.94;87.59;101374.03;5237135;28;20028;-85
2021/06/27 10:15:21;;;;;;;13.68;10.45;;;;;;;26.96;86.24;101375.44;5233289;28;20499;-85
2021/06/27 10:17:51;;;;;;;17.08;10.65;;;;;;;26.89;85.19;101379.47;5239117;28;20028;-85
2021/06/27 10:20:22;;;;;;;16.77;11.10;;;;;;;26.93;96.16;101370.44;5227113;28;20024;-85
2021/06/27 10:22:52;;;;;;;17.13;11.07;;;;;;;27.07;90.09;101373.59;5239255;28;20535;-85
2021/06/27 10:25:24;;;;;;;14.45;10.05;;;;;;;27.21;90.02;101376.72;5239304;28;20040;-84
2021/06/27 10:27:54;;;;;;;13.45;10.15;;;;;;;27.35;84.82;101367.75;5226873;28;20021;-84
2021/06/27 10:30:25;;;;;;;13.52;10.18;;;;;;;27.36;86.15;101369.41;5246252;28;20028;-84
2021/06/27 10:32:55;;;;;;;13.80;10.00;;;;;;;27.20;86.50;101364.88;5232463;28;20471;-84
2021/06/27 10:35:26;;;;;;;14.23;10.05;;;;;;;27.32;86.47;101354.50;5236955;28;20020;-84
2021/06/27 10:37:58;;;;;;;13.88;9.27;;;;;;;27.52;79.73;101364.00;5234863;28;20025;-85
2021/06/27 10:40:51;;;;;;;11.80;8.93;;;;;;;27.63;78.39;101354.69;5245798;28;20023;-85
2021/06/27 10:43:22;;;;;;;14.48;9.02;;;;;;;27.30;83.86;101355.84;5233980;28;20463;-84
2021/06/27 10:45:52;;;;;;;11.90;9.02;;;;;;;27.61;77.94;101352.22;5243932;28;20081;-85
2021/06/27 10:48:43;;;;;;;13.20;9.25;;;;;;;27.74;77.17;101345.41;5225410;28;20028;-85
2021/06/27 10:51:14;;;;;;;11.85;8.95;;;;;;;27.81;83.97;101340.47;5243640;28;20549;-85
2021/06/27 10:54:11;;;;;;;11.95;7.95;;;;;;;28.04;75.51;101332.81;5231851;28;20028;-85
2021/06/27 10:56:53;;;;;;;10.55;8.18;;;;;;;28.27;81.33;101340.63;5225228;28;20272;-85
2021/06/27 10:59:53;;;;;;;10.30;8.20;;;;;;;28.82;79.74;101340.97;5237221;28;20032;-85
2021/06/27 11:02:39;;;;;;;12.55;8.43;;;;;;;28.78;66.98;101335.19;5222760;28;20035;-85
2021/06/27 11:05:35;;;;;;;9.82;7.25;;;;;;;28.55;76.56;101338.47;5245890;28;20032;-85
2021/06/27 11:08:06;;;;;;;11.85;8.48;;;;;;;28.44;86.79;101334.88;5234217;28;20021;-85
2021/06/27 11:10:37;;;;;;;12.02;8.60;;;;;;;28.73;72.99;101345.41;5230062;28;20036;-85
2021/06/27 11:13:12;;;;;;;9.07;7.18;;;;;;;29.02;66.09;101341.00;5245945;28;20388;-85
2021/06/27 11:15:45;;;;;;;8.60;7.15;;;;;;;29.01;65.02;101341.25;5230689;28;20107;-85
2021/06/27 11:18:36;;;;;;;11.77;7.90;;;;;;;28.89;63.35;101345.09;5238324;28;20391;-85
2021/06/27 11:21:13;;;;;;;11.10;7.60;;;;;;;28.79;65.38;101342.34;5236657;28;20464;-85
2021/06/27 11:23:46;;;;;;;13.30;8.55;;;;;;;28.75;66.00;101344.00;5238677;28;20117;-85